createdAt,value
2022-10-23T11:07:56.817Z,101065.06
2022-10-23T11:12:59.732Z,101058.34
2022-10-23T11:18:06.416Z,101038.47
2022-10-23T11:23:28.089Z,101010.03
2022-10-23T11:28:43.064Z,101019.91
2022-10-23T11:34:07.481Z,101017.66
2022-10-23T11:39:27.311Z,100985.63
2022-10-23T11:44:50.421Z,100959.31
2022-10-23T11:50:07.206Z,100940.59
2022-10-23T11:55:19.235Z,100924.59
2022-10-23T12:00:23.556Z,100913.06
2022-10-23T12:05:35.078Z,100905.88
2022-10-23T12:10:46.029Z,100899.03
2022-10-23T12:15:56.063Z,100907.88
2022-10-23T12:21:02.276Z,100889.38
2022-10-23T12:26:38.103Z,100869.06
2022-10-23T12:31:48.178Z,100878.28
2022-10-23T12:37:07.775Z,100862.81
2022-10-23T12:42:17.514Z,100847.22
2022-10-23T12:47:19.882Z,100830.69
2022-10-23T12:52:22.880Z,100819.13
2022-10-23T12:57:26.581Z,100809.06
2022-10-23T13:02:31.577Z,100809.94
2022-10-23T13:07:37.145Z,100807.28
2022-10-23T13:12:44.765Z,100813.28
2022-10-23T13:17:55.817Z,100785.69
2022-10-23T13:23:11.918Z,100779.44
2022-10-23T13:28:29.257Z,100752.53
2022-10-23T13:33:33.208Z,100739.22
2022-10-23T13:38:38.284Z,100759.81
2022-10-23T13:43:42.987Z,100736.44
2022-10-23T13:48:46.294Z,100726.13
2022-10-23T13:53:49.443Z,100716.94
2022-10-23T13:58:51.829Z,100713.31
2022-10-23T14:03:58.235Z,100716.09
2022-10-23T14:09:00.658Z,100714.03
2022-10-23T14:14:03.264Z,100708.03
2022-10-23T14:19:05.660Z,100692.75
2022-10-23T14:24:08.852Z,100686.50
2022-10-23T14:29:17.245Z,100666.88
2022-10-23T14:34:23.775Z,100661.03
2022-10-23T14:39:26.052Z,100677.84
2022-10-23T14:44:28.423Z,100666.72
2022-10-23T14:49:31.037Z,100661.97
2022-10-23T14:54:33.437Z,100643.06
2022-10-23T14:59:35.733Z,100634.72
2022-10-23T15:04:38.815Z,100627.66
2022-10-23T15:09:40.983Z,100621.09
2022-10-23T15:14:43.249Z,100604.69
2022-10-23T15:19:45.524Z,100594.84
2022-10-23T15:24:47.784Z,100574.69
2022-10-23T15:29:50.049Z,100583.31
2022-10-23T15:34:52.529Z,100589.78
2022-10-23T15:39:59.714Z,100582.84
2022-10-23T15:45:04.809Z,100575.47
2022-10-23T15:50:07.779Z,100570.31
2022-10-23T15:55:10.089Z,100559.34
2022-10-23T16:00:16.969Z,100558.34
2022-10-23T16:05:20.605Z,100542.03
2022-10-23T16:10:22.898Z,100534.63
2022-10-23T16:15:25.192Z,100529.00
2022-10-23T16:20:27.484Z,100523.97
2022-10-23T16:25:29.945Z,100533.09
2022-10-23T16:30:32.320Z,100525.59
2022-10-23T16:35:35.393Z,100517.81
2022-10-23T16:40:51.544Z,100511.69
2022-10-23T16:46:21.293Z,100525.00
2022-10-23T16:51:26.311Z,100508.44
2022-10-23T16:56:29.730Z,100515.69
2022-10-23T17:01:33.211Z,100499.63
2022-10-23T17:06:36.028Z,100496.97
2022-10-23T17:11:39.853Z,100494.13
2022-10-23T17:16:48.613Z,100486.09
2022-10-23T17:21:51.055Z,100472.16
2022-10-23T17:26:54.504Z,100472.81
2022-10-23T17:31:56.909Z,100454.94
2022-10-23T17:36:59.271Z,100440.97
2022-10-23T17:42:01.604Z,100444.22
2022-10-23T17:47:04.028Z,100449.41
2022-10-23T17:52:06.379Z,100448.31
2022-10-23T17:57:08.653Z,100455.97
2022-10-23T18:02:12.613Z,100461.81
2022-10-23T18:07:15.743Z,100466.38
2022-10-23T18:12:18.467Z,100477.50
2022-10-23T18:17:20.763Z,100485.69
2022-10-23T18:22:23.082Z,100474.59
2022-10-23T18:27:25.673Z,100474.44
2022-10-23T18:32:27.975Z,100470.28
2022-10-23T18:37:33.838Z,100474.31
2022-10-23T18:42:37.877Z,100453.06
2022-10-23T18:47:40.182Z,100440.41
2022-10-23T18:52:42.563Z,100425.59
2022-10-23T18:57:45.127Z,100433.22
2022-10-23T19:02:52.112Z,100437.94
2022-10-23T19:07:55.153Z,100431.13
2022-10-23T19:12:57.558Z,100429.59
2022-10-23T19:18:00.125Z,100420.72
2022-10-23T19:23:05.005Z,100425.84
2022-10-23T19:28:07.408Z,100408.63
2022-10-23T19:33:09.760Z,100411.81
2022-10-23T19:38:12.055Z,100416.53
2022-10-23T19:43:14.422Z,100419.06
2022-10-23T19:48:16.792Z,100416.69
2022-10-23T19:53:19.389Z,100398.34
2022-10-23T19:58:21.689Z,100390.44
2022-10-23T20:03:23.981Z,100398.38
2022-10-23T20:08:28.347Z,100397.53
2022-10-23T20:13:33.531Z,100387.53
2022-10-23T20:18:35.861Z,100389.19
2022-10-23T20:23:38.151Z,100396.66
2022-10-23T20:28:40.449Z,100402.81
2022-10-23T20:33:43.165Z,100402.91
2022-10-23T20:38:45.558Z,100405.69
2022-10-23T20:43:48.063Z,100422.78
2022-10-23T20:48:51.080Z,100422.53
2022-10-23T20:53:53.625Z,100421.81
2022-10-23T20:58:57.922Z,100412.38
2022-10-23T21:04:01.978Z,100407.75
2022-10-23T21:09:05.618Z,100405.97
2022-10-23T21:14:07.924Z,100399.72
2022-10-23T21:19:15.373Z,100416.97
2022-10-23T21:24:18.093Z,100396.41
2022-10-23T21:29:20.734Z,100398.22
2022-10-23T21:34:24.628Z,100406.00
2022-10-23T21:39:26.977Z,100409.34
2022-10-23T21:44:29.310Z,100406.41
2022-10-23T21:49:31.879Z,100412.50
2022-10-23T21:54:34.166Z,100415.97
2022-10-23T21:59:36.477Z,100413.16
2022-10-23T22:04:39.518Z,100405.41
2022-10-23T22:09:42.318Z,100415.94
2022-10-23T22:14:44.599Z,100418.41
2022-10-23T22:19:46.874Z,100402.69
2022-10-23T22:24:49.221Z,100408.25
2022-10-23T22:29:51.516Z,100401.03
2022-10-23T22:34:53.813Z,100394.81
2022-10-23T22:39:56.079Z,100420.38
2022-10-23T22:44:58.341Z,100432.69
2022-10-23T22:50:00.612Z,100433.41
2022-10-23T22:55:03.098Z,100442.94
2022-10-23T23:00:06.553Z,100437.91
2022-10-23T23:05:11.493Z,100431.66
2022-10-23T23:10:13.789Z,100422.28
2022-10-23T23:15:16.159Z,100435.91
2022-10-23T23:20:18.503Z,100440.50
2022-10-23T23:25:20.772Z,100445.19
2022-10-23T23:30:23.873Z,100447.03
2022-10-23T23:35:26.204Z,100451.81
2022-10-23T23:40:28.488Z,100449.13
2022-10-23T23:45:31.245Z,100458.22
2022-10-23T23:50:33.549Z,100449.59
2022-10-23T23:55:36.296Z,100449.13
